Time;durP1;ratioP1;P1;durP2;ratioP2;P2;SDS_P1;SDS_P2;PMS_P1;PMS_P2;Temp;Humidity;BMP_temperature;BMP_pressure;BME280_temperature;BME280_humidity;BME280_pressure;Samples;Min_cycle;Max_cycle;Signal;HPM_P1;HPM_P2
2023/04/04 00:01:03;;;;;;;1.00;0.70;;;;;;;;;;5098811;28;20211;-62
2023/04/04 00:03:30;;;;;;;1.13;0.80;;;;;;;;;;5103448;28;20616;-62
2023/04/04 00:05:58;;;;;;;0.82;0.60;;;;;;;;;;5119398;28;20203;-62
2023/04/04 00:08:25;;;;;;;0.70;0.70;;;;;;;;;;5119230;28;20199;-62
2023/04/04 00:10:59;;;;;;;1.02;0.70;;;;;;;;;;5119075;28;20226;-62
2023/04/04 00:13:27;;;;;;;0.88;0.88;;;;;;;;;;5118617;28;20210;-62
2023/04/04 00:15:55;;;;;;;0.88;0.80;;;;;;;;;;5118781;28;20612;-62
2023/04/04 00:18:22;;;;;;;0.77;0.65;;;;;;;;;;5118851;28;20222;-62
2023/04/04 00:20:50;;;;;;;0.80;0.70;;;;;;;;;;5118899;28;20301;-62
2023/04/04 00:23:17;;;;;;;0.85;0.85;;;;;;;;;;5118243;28;20646;-62
2023/04/04 00:25:49;;;;;;;0.80;0.80;;;;;;;;;;5118611;28;20217;-62
2023/04/04 00:28:18;;;;;;;0.80;0.80;;;;;;;;;;5118809;28;20309;-62
2023/04/04 00:30:46;;;;;;;0.70;0.68;;;;;;;;;;5119006;28;20225;-62
2023/04/04 00:33:14;;;;;;;0.80;0.80;;;;;;;;;;5118470;28;20199;-62
2023/04/04 00:35:42;;;;;;;0.85;0.70;;;;;;;;;;5118312;28;20698;-62
2023/04/04 00:38:09;;;;;;;0.70;0.70;;;;;;;;;;5118531;28;20226;-62
2023/04/04 00:40:41;;;;;;;0.90;0.90;;;;;;;;;;5118687;28;20279;-62
2023/04/04 00:43:08;;;;;;;0.80;0.80;;;;;;;;;;5118298;28;20287;-62
2023/04/04 00:45:37;;;;;;;1.00;0.90;;;;;;;;;;5118646;28;20614;-62
2023/04/04 00:48:05;;;;;;;1.00;0.82;;;;;;;;;;5118399;28;20213;-62
2023/04/04 00:50:33;;;;;;;0.80;0.80;;;;;;;;;;5118020;28;20203;-62
2023/04/04 00:53:00;;;;;;;0.60;0.60;;;;;;;;;;5117865;28;20199;-62
2023/04/04 00:55:28;;;;;;;0.70;0.70;;;;;;;;;;5118561;28;20289;-62
2023/04/04 00:57:56;;;;;;;0.73;0.73;;;;;;;;;;5117739;28;20261;-62
2023/04/04 01:00:23;;;;;;;0.70;0.70;;;;;;;;;;5117878;28;20263;-62
2023/04/04 01:02:52;;;;;;;0.77;0.77;;;;;;;;;;5118050;28;20325;-62
2023/04/04 01:05:20;;;;;;;0.80;0.80;;;;;;;;;;5118273;28;20301;-62
2023/04/04 01:07:47;;;;;;;0.80;0.80;;;;;;;;;;5118221;28;20206;-62
2023/04/04 01:10:15;;;;;;;0.60;0.60;;;;;;;;;;5118171;28;20467;-62
2023/04/04 01:12:42;;;;;;;1.02;0.77;;;;;;;;;;5118040;28;20199;-62
2023/04/04 01:15:11;;;;;;;0.80;0.80;;;;;;;;;;5118253;28;20290;-62
2023/04/04 01:17:38;;;;;;;0.80;0.80;;;;;;;;;;5118020;28;20222;-62
2023/04/04 01:20:08;;;;;;;0.80;0.80;;;;;;;;;;5117434;28;20285;-62
2023/04/04 01:22:35;;;;;;;0.73;0.73;;;;;;;;;;5117976;28;20309;-62
2023/04/04 01:25:05;;;;;;;0.80;0.80;;;;;;;;;;5118039;28;20250;-62
2023/04/04 01:27:34;;;;;;;0.60;0.60;;;;;;;;;;5117726;28;20199;-62
2023/04/04 01:30:04;;;;;;;1.08;0.98;;;;;;;;;;5118032;28;20225;-62
2023/04/04 01:32:34;;;;;;;0.80;0.80;;;;;;;;;;5117197;28;20651;-62
2023/04/04 01:35:03;;;;;;;0.75;0.73;;;;;;;;;;5115607;28;20540;-62
2023/04/04 01:37:35;;;;;;;0.90;0.90;;;;;;;;;;5117564;28;20317;-62
2023/04/04 01:40:05;;;;;;;0.85;0.85;;;;;;;;;;5117791;28;20203;-62
2023/04/04 01:42:34;;;;;;;0.77;0.77;;;;;;;;;;5117305;28;20214;-62
2023/04/04 01:45:01;;;;;;;0.80;0.80;;;;;;;;;;5117614;28;20206;-62
2023/04/04 01:47:30;;;;;;;0.90;0.90;;;;;;;;;;5117672;28;20242;-62
2023/04/04 01:49:57;;;;;;;0.80;0.80;;;;;;;;;;5117933;28;20469;-62
2023/04/04 01:52:25;;;;;;;0.70;0.70;;;;;;;;;;5116942;28;20567;-62
2023/04/04 01:54:52;;;;;;;0.80;0.80;;;;;;;;;;5117948;28;20207;-62
2023/04/04 01:57:20;;;;;;;0.70;0.70;;;;;;;;;;5117432;28;20582;-62
2023/04/04 01:59:49;;;;;;;0.80;0.80;;;;;;;;;;5117616;28;20203;-62
2023/04/04 02:02:16;;;;;;;0.63;0.63;;;;;;;;;;5117565;28;20292;-62
2023/04/04 02:04:43;;;;;;;0.80;0.80;;;;;;;;;;5117505;28;20195;-62
2023/04/04 02:07:11;;;;;;;0.70;0.70;;;;;;;;;;5117432;28;20213;-62
2023/04/04 02:09:39;;;;;;;0.85;0.82;;;;;;;;;;5117171;28;20596;-62
2023/04/04 02:12:06;;;;;;;0.70;0.70;;;;;;;;;;5116960;28;20249;-62
2023/04/04 02:14:34;;;;;;;0.80;0.80;;;;;;;;;;5116971;28;20235;-62
2023/04/04 02:17:03;;;;;;;1.00;0.88;;;;;;;;;;5117343;28;20290;-62
2023/04/04 02:19:31;;;;;;;1.08;1.00;;;;;;;;;;5117242;28;20297;-62
2023/04/04 02:21:58;;;;;;;1.05;0.80;;;;;;;;;;5116319;28;20209;-62
2023/04/04 02:24:26;;;;;;;1.00;0.90;;;;;;;;;;5117024;28;20202;-62
2023/04/04 02:26:53;;;;;;;0.80;0.80;;;;;;;;;;5108298;28;20539;-62
2023/04/04 02:29:21;;;;;;;1.00;0.80;;;;;;;;;;5097221;28;20206;-62
2023/04/04 02:31:48;;;;;;;0.73;0.73;;;;;;;;;;5099399;28;20298;-62
2023/04/04 02:34:17;;;;;;;1.17;0.90;;;;;;;;;;5101566;28;20467;-62
2023/04/04 02:36:46;;;;;;;1.27;0.80;;;;;;;;;;5100755;28;20212;-62
2023/04/04 02:39:13;;;;;;;0.80;0.80;;;;;;;;;;5100355;28;20227;-62
2023/04/04 02:41:41;;;;;;;0.77;0.77;;;;;;;;;;5100715;28;20222;-62
2023/04/04 02:44:09;;;;;;;0.80;0.80;;;;;;;;;;5100322;28;20207;-62
2023/04/04 02:46:36;;;;;;;0.85;0.85;;;;;;;;;;5100287;28;20269;-62
2023/04/04 02:49:04;;;;;;;0.90;0.90;;;;;;;;;;5099468;28;20563;-62
2023/04/04 02:51:33;;;;;;;0.80;0.73;;;;;;;;;;5099679;28;20265;-62
2023/04/04 02:54:01;;;;;;;1.02;0.90;;;;;;;;;;5112947;28;20488;-62
2023/04/04 02:56:29;;;;;;;1.20;0.70;;;;;;;;;;5120221;28;20319;-62
2023/04/04 02:58:56;;;;;;;0.85;0.85;;;;;;;;;;5120563;28;20326;-62
2023/04/04 03:01:26;;;;;;;0.68;0.68;;;;;;;;;;5120348;28;20203;-62
2023/04/04 03:03:54;;;;;;;0.73;0.73;;;;;;;;;;5119717;28;20199;-62
2023/04/04 03:06:21;;;;;;;0.75;0.75;;;;;;;;;;5119888;28;20202;-62
2023/04/04 03:08:50;;;;;;;0.93;0.70;;;;;;;;;;5120461;28;20209;-62
2023/04/04 03:11:20;;;;;;;0.70;0.70;;;;;;;;;;5120485;28;20236;-61
2023/04/04 03:13:50;;;;;;;1.00;1.00;;;;;;;;;;5119642;28;20482;-61
2023/04/04 03:16:18;;;;;;;0.73;0.60;;;;;;;;;;5119809;28;20777;-61
2023/04/04 03:18:46;;;;;;;0.80;0.80;;;;;;;;;;5119853;28;20228;-61
2023/04/04 03:21:14;;;;;;;0.75;0.75;;;;;;;;;;5119919;28;20214;-61
2023/04/04 03:23:42;;;;;;;0.68;0.68;;;;;;;;;;5119264;28;20551;-61
2023/04/04 03:26:11;;;;;;;1.08;0.75;;;;;;;;;;5119602;28;20210;-61
2023/04/04 03:28:39;;;;;;;0.70;0.70;;;;;;;;;;5119799;28;20289;-61
2023/04/04 03:31:07;;;;;;;1.05;1.00;;;;;;;;;;5119174;28;20489;-61
2023/04/04 03:33:36;;;;;;;0.88;0.80;;;;;;;;;;5119956;28;20294;-61
2023/04/04 03:36:04;;;;;;;1.38;0.77;;;;;;;;;;5119386;28;20236;-61
2023/04/04 03:38:31;;;;;;;0.70;0.70;;;;;;;;;;5120000;28;20230;-61
2023/04/04 03:41:02;;;;;;;0.90;0.80;;;;;;;;;;5119544;28;20203;-61
2023/04/04 03:43:32;;;;;;;0.75;0.75;;;;;;;;;;5119348;28;20557;-61
2023/04/04 03:46:01;;;;;;;0.70;0.70;;;;;;;;;;5119694;28;20269;-61
2023/04/04 03:48:28;;;;;;;0.80;0.80;;;;;;;;;;5119339;28;20205;-62
2023/04/04 03:50:57;;;;;;;0.82;0.82;;;;;;;;;;5119358;28;20605;-61
2023/04/04 03:53:25;;;;;;;0.85;0.85;;;;;;;;;;5118968;28;20195;-61
2023/04/04 03:55:52;;;;;;;0.57;0.57;;;;;;;;;;5118974;28;20250;-61
2023/04/04 03:58:20;;;;;;;1.25;0.90;;;;;;;;;;5118512;28;20227;-61
2023/04/04 04:00:49;;;;;;;0.60;0.60;;;;;;;;;;5119069;28;20288;-62
2023/04/04 04:03:16;;;;;;;0.98;0.80;;;;;;;;;;5118539;28;20195;-62
2023/04/04 04:05:44;;;;;;;0.70;0.70;;;;;;;;;;5119204;28;20214;-62
2023/04/04 04:08:11;;;;;;;1.00;0.90;;;;;;;;;;5118524;28;20269;-62
2023/04/04 04:10:38;;;;;;;0.80;0.80;;;;;;;;;;5118609;28;20199;-62
2023/04/04 04:13:05;;;;;;;1.10;1.00;;;;;;;;;;5118486;28;20202;-62
2023/04/04 04:15:33;;;;;;;0.80;0.80;;;;;;;;;;5118644;28;20210;-62
2023/04/04 04:18:01;;;;;;;0.80;0.73;;;;;;;;;;5118358;28;20252;-62
2023/04/04 04:20:29;;;;;;;0.80;0.80;;;;;;;;;;5118679;28;20492;-62
2023/04/04 04:22:56;;;;;;;0.90;0.90;;;;;;;;;;5118183;28;20218;-62
2023/04/04 04:25:23;;;;;;;0.80;0.80;;;;;;;;;;5118332;28;20211;-62
2023/04/04 04:27:51;;;;;;;0.77;0.77;;;;;;;;;;5117780;28;20676;-62
2023/04/04 04:30:18;;;;;;;0.80;0.80;;;;;;;;;;5117768;28;20199;-62
2023/04/04 04:32:45;;;;;;;1.00;0.90;;;;;;;;;;5118338;28;20209;-62
2023/04/04 04:35:14;;;;;;;0.95;0.95;;;;;;;;;;5116866;28;20211;-62
2023/04/04 04:37:42;;;;;;;0.82;0.80;;;;;;;;;;5117708;28;20517;-62
2023/04/04 04:40:09;;;;;;;0.80;0.80;;;;;;;;;;5117450;28;20227;-62
2023/04/04 04:42:37;;;;;;;1.33;0.90;;;;;;;;;;5117198;28;20210;-62
2023/04/04 04:45:04;;;;;;;0.90;0.90;;;;;;;;;;5117105;28;20203;-62
2023/04/04 04:47:32;;;;;;;0.70;0.70;;;;;;;;;;5117166;28;20230;-62
2023/04/04 04:50:00;;;;;;;1.00;0.90;;;;;;;;;;5117368;28;20290;-62
2023/04/04 04:52:30;;;;;;;0.95;0.88;;;;;;;;;;5116327;28;20203;-62
2023/04/04 04:54:57;;;;;;;0.80;0.80;;;;;;;;;;5116248;28;20209;-62
2023/04/04 04:57:25;;;;;;;0.80;0.80;;;;;;;;;;5116403;28;20235;-62
2023/04/04 04:59:52;;;;;;;0.80;0.80;;;;;;;;;;5116007;28;20222;-62
2023/04/04 05:02:20;;;;;;;0.80;0.75;;;;;;;;;;5116278;28;20605;-62
2023/04/04 05:04:47;;;;;;;0.80;0.80;;;;;;;;;;5116500;28;20588;-62
2023/04/04 05:07:14;;;;;;;0.88;0.88;;;;;;;;;;5115933;28;20659;-62
2023/04/04 05:09:43;;;;;;;0.75;0.75;;;;;;;;;;5115349;28;20203;-62
2023/04/04 05:12:10;;;;;;;0.70;0.70;;;;;;;;;;5115205;28;20540;-62
2023/04/04 05:14:37;;;;;;;0.85;0.85;;;;;;;;;;5115186;28;20213;-62
2023/04/04 05:17:05;;;;;;;1.00;0.95;;;;;;;;;;5115330;28;20218;-62
2023/04/04 05:19:32;;;;;;;1.23;1.00;;;;;;;;;;5115515;28;20304;-62
2023/04/04 05:21:59;;;;;;;1.20;0.80;;;;;;;;;;5114906;28;20214;-63
2023/04/04 05:24:27;;;;;;;0.70;0.70;;;;;;;;;;5115378;28;20198;-62
2023/04/04 05:26:56;;;;;;;0.80;0.80;;;;;;;;;;5115297;28;20203;-62
2023/04/04 05:29:26;;;;;;;0.90;0.90;;;;;;;;;;5115244;28;20199;-62
2023/04/04 05:31:54;;;;;;;0.70;0.70;;;;;;;;;;5114867;28;20199;-62
2023/04/04 05:34:21;;;;;;;1.00;0.90;;;;;;;;;;5114908;28;20235;-62
2023/04/04 05:36:49;;;;;;;1.08;0.98;;;;;;;;;;5114765;28;20203;-62
2023/04/04 05:39:16;;;;;;;1.00;0.90;;;;;;;;;;5114946;28;20749;-62
2023/04/04 05:41:44;;;;;;;1.00;1.00;;;;;;;;;;5114703;28;20211;-62
2023/04/04 05:44:12;;;;;;;0.95;0.90;;;;;;;;;;5114828;28;20226;-62
2023/04/04 05:46:40;;;;;;;1.25;1.00;;;;;;;;;;5115644;28;20203;-62
2023/04/04 05:49:07;;;;;;;0.95;0.82;;;;;;;;;;5114842;28;20218;-62
2023/04/04 05:51:35;;;;;;;1.02;0.90;;;;;;;;;;5114876;28;20230;-62
2023/04/04 05:54:02;;;;;;;0.82;0.82;;;;;;;;;;5114981;28;20202;-62
2023/04/04 05:56:29;;;;;;;0.85;0.85;;;;;;;;;;5115359;28;20230;-62
2023/04/04 05:58:57;;;;;;;1.10;0.85;;;;;;;;;;5114296;28;20218;-62
2023/04/04 06:01:26;;;;;;;1.75;1.00;;;;;;;;;;5114661;28;20571;-62
2023/04/04 06:03:54;;;;;;;1.00;0.90;;;;;;;;;;5115057;28;20652;-62
2023/04/04 06:06:22;;;;;;;1.20;0.90;;;;;;;;;;5119136;28;20282;-62
2023/04/04 06:08:49;;;;;;;1.30;1.02;;;;;;;;;;5119584;28;20207;-62
2023/04/04 06:11:16;;;;;;;1.10;1.00;;;;;;;;;;5116105;28;20200;-62
2023/04/04 06:13:44;;;;;;;1.55;1.02;;;;;;;;;;5098082;28;20218;-62
2023/04/04 06:16:11;;;;;;;1.10;1.00;;;;;;;;;;5098681;28;20211;-62
2023/04/04 06:18:40;;;;;;;1.48;1.15;;;;;;;;;;5099273;28;20509;-62
2023/04/04 06:21:07;;;;;;;1.40;1.20;;;;;;;;;;5099321;28;20204;-62
2023/04/04 06:23:36;;;;;;;1.00;0.90;;;;;;;;;;5099297;28;20226;-62
2023/04/04 06:26:04;;;;;;;1.17;0.93;;;;;;;;;;5099220;28;20610;-62
2023/04/04 06:28:31;;;;;;;1.08;0.95;;;;;;;;;;5098416;28;20204;-62
2023/04/04 06:30:58;;;;;;;1.38;0.95;;;;;;;;;;5098637;28;20643;-62
2023/04/04 06:33:26;;;;;;;2.00;1.00;;;;;;;;;;5098619;28;20223;-62
2023/04/04 06:35:54;;;;;;;2.38;1.05;;;;;;;;;;5098646;28;20264;-62
2023/04/04 06:38:22;;;;;;;1.70;1.20;;;;;;;;;;5098390;28;20219;-61
2023/04/04 06:40:49;;;;;;;4.60;1.42;;;;;;;;;;5098237;28;20223;-62
2023/04/04 06:43:16;;;;;;;1.90;1.35;;;;;;;;;;5098163;28;20214;-62
2023/04/04 06:45:44;;;;;;;1.98;1.20;;;;;;;;;;5098446;28;20223;-61
2023/04/04 06:48:11;;;;;;;3.28;1.48;;;;;;;;;;5098668;28;20615;-62
2023/04/04 06:50:38;;;;;;;2.78;1.38;;;;;;;;;;5098454;28;20200;-61
2023/04/04 06:53:08;;;;;;;1.33;1.23;;;;;;;;;;5097908;28;20207;-62
2023/04/04 06:55:36;;;;;;;1.48;1.20;;;;;;;;;;5098022;28;20287;-61
2023/04/04 06:58:03;;;;;;;1.85;1.42;;;;;;;;;;5098867;28;20259;-61
2023/04/04 07:00:30;;;;;;;1.70;1.20;;;;;;;;;;5097825;28;20628;-62
2023/04/04 07:02:59;;;;;;;1.58;1.30;;;;;;;;;;5098404;28;20203;-61
2023/04/04 07:05:26;;;;;;;1.50;1.30;;;;;;;;;;5097692;28;20282;-61
2023/04/04 07:07:55;;;;;;;2.33;1.55;;;;;;;;;;5097887;28;20306;-61
2023/04/04 07:10:24;;;;;;;2.85;1.52;;;;;;;;;;5098367;28;20204;-61
2023/04/04 07:12:51;;;;;;;1.45;1.10;;;;;;;;;;5097854;28;20552;-61
2023/04/04 07:15:19;;;;;;;1.80;1.17;;;;;;;;;;5097686;28;20211;-61
2023/04/04 07:17:46;;;;;;;2.53;1.55;;;;;;;;;;5097306;28;20207;-61
2023/04/04 07:20:13;;;;;;;1.65;1.35;;;;;;;;;;5098130;28;20518;-61
2023/04/04 07:22:43;;;;;;;1.98;1.77;;;;;;;;;;5097549;28;20207;-61
2023/04/04 07:25:11;;;;;;;1.50;1.40;;;;;;;;;;5097922;28;20218;-62
2023/04/04 07:27:40;;;;;;;1.50;1.40;;;;;;;;;;5098209;28;20208;-62
2023/04/04 07:30:08;;;;;;;2.42;1.60;;;;;;;;;;5097360;28;20231;-62
2023/04/04 07:32:36;;;;;;;1.60;1.50;;;;;;;;;;5097933;28;20207;-62
2023/04/04 07:35:05;;;;;;;2.08;1.65;;;;;;;;;;5097962;28;20203;-62
2023/04/04 07:37:33;;;;;;;1.90;1.30;;;;;;;;;;5097070;28;20669;-61
2023/04/04 07:40:01;;;;;;;3.53;1.65;;;;;;;;;;5097292;28;20227;-61
2023/04/04 07:42:29;;;;;;;2.55;1.95;;;;;;;;;;5096782;28;20230;-62
2023/04/04 07:44:58;;;;;;;2.85;1.77;;;;;;;;;;5097248;28;20485;-61
2023/04/04 07:47:26;;;;;;;1.60;1.40;;;;;;;;;;5097229;28;20204;-61
2023/04/04 07:49:54;;;;;;;1.75;1.63;;;;;;;;;;5097107;28;20606;-61
2023/04/04 07:52:21;;;;;;;2.15;1.70;;;;;;;;;;5097060;28;20215;-62
2023/04/04 07:54:49;;;;;;;2.90;1.70;;;;;;;;;;5097098;28;20215;-62
2023/04/04 07:57:16;;;;;;;2.08;1.88;;;;;;;;;;5095675;28;20239;-62
2023/04/04 07:59:43;;;;;;;1.88;1.67;;;;;;;;;;5096781;28;20277;-62
2023/04/04 08:02:12;;;;;;;3.00;1.70;;;;;;;;;;5096807;28;20195;-62
2023/04/04 08:04:40;;;;;;;2.20;1.70;;;;;;;;;;5096733;28;20203;-62
2023/04/04 08:07:07;;;;;;;1.58;1.48;;;;;;;;;;5096648;28;20210;-62
2023/04/04 08:09:35;;;;;;;2.88;1.70;;;;;;;;;;5096845;28;20295;-62
2023/04/04 08:12:02;;;;;;;2.42;1.50;;;;;;;;;;5096022;28;20239;-62
2023/04/04 08:14:30;;;;;;;2.63;1.77;;;;;;;;;;5096132;28;20203;-62
2023/04/04 08:16:57;;;;;;;1.80;1.58;;;;;;;;;;5096305;28;20211;-62
2023/04/04 08:19:26;;;;;;;2.88;1.80;;;;;;;;;;5096408;28;20274;-62
2023/04/04 08:21:53;;;;;;;1.65;1.55;;;;;;;;;;5096656;28;20211;-62
2023/04/04 08:24:21;;;;;;;2.42;1.60;;;;;;;;;;5095660;28;20214;-62
2023/04/04 08:26:49;;;;;;;2.05;1.70;;;;;;;;;;5096472;28;20204;-62
2023/04/04 08:29:16;;;;;;;1.98;1.73;;;;;;;;;;5095232;28;20231;-62
2023/04/04 08:31:43;;;;;;;1.77;1.60;;;;;;;;;;5095958;28;20746;-62
2023/04/04 08:34:11;;;;;;;1.83;1.73;;;;;;;;;;5095347;28;20496;-62
2023/04/04 08:36:40;;;;;;;2.60;1.60;;;;;;;;;;5096222;28;20281;-61
2023/04/04 08:39:07;;;;;;;2.35;1.90;;;;;;;;;;5095832;28;20511;-61
2023/04/04 08:41:35;;;;;;;2.17;1.90;;;;;;;;;;5095816;28;20203;-61
2023/04/04 08:44:03;;;;;;;2.40;1.70;;;;;;;;;;5103103;28;20202;-62
2023/04/04 08:46:30;;;;;;;2.88;1.70;;;;;;;;;;5103482;28;20191;-64
2023/04/04 08:48:59;;;;;;;2.75;1.88;;;;;;;;;;5095855;28;20203;-64
2023/04/04 08:51:27;;;;;;;2.13;1.67;;;;;;;;;;5095346;28;20207;-65
2023/04/04 08:53:56;;;;;;;2.67;1.67;;;;;;;;;;5096397;28;20206;-61
2023/04/04 08:56:24;;;;;;;2.92;2.08;;;;;;;;;;5114169;28;20250;-61
2023/04/04 08:58:51;;;;;;;2.28;1.75;;;;;;;;;;5115558;28;20203;-61
2023/04/04 09:01:19;;;;;;;1.75;1.50;;;;;;;;;;5112749;28;20237;-61
2023/04/04 09:03:46;;;;;;;2.95;1.80;;;;;;;;;;5094448;28;20589;-61
2023/04/04 09:06:14;;;;;;;2.15;1.70;;;;;;;;;;5095650;28;20213;-61
2023/04/04 09:08:42;;;;;;;2.15;1.90;;;;;;;;;;5095504;28;20230;-61
2023/04/04 09:11:12;;;;;;;2.92;1.83;;;;;;;;;;5095291;28;20207;-61
2023/04/04 09:13:40;;;;;;;1.95;1.77;;;;;;;;;;5110503;28;20202;-61
2023/04/04 09:16:08;;;;;;;2.22;1.77;;;;;;;;;;5094859;28;20489;-61
2023/04/04 09:18:35;;;;;;;2.25;1.55;;;;;;;;;;5094978;28;20211;-61
2023/04/04 09:21:09;;;;;;;1.70;1.60;;;;;;;;;;5095510;28;20229;-61
2023/04/04 09:23:36;;;;;;;2.15;1.95;;;;;;;;;;5113746;28;20634;-61
2023/04/04 09:26:04;;;;;;;1.80;1.70;;;;;;;;;;5114303;28;20199;-61
2023/04/04 09:28:33;;;;;;;2.30;1.60;;;;;;;;;;5115191;28;20202;-61
2023/04/04 09:31:01;;;;;;;2.03;1.55;;;;;;;;;;5115650;28;20211;-61
2023/04/04 09:33:29;;;;;;;1.80;1.70;;;;;;;;;;5094080;28;20195;-61
2023/04/04 09:35:58;;;;;;;1.90;1.70;;;;;;;;;;5095021;28;20209;-61
2023/04/04 09:38:26;;;;;;;1.67;1.52;;;;;;;;;;5094382;28;20199;-61
2023/04/04 09:40:54;;;;;;;1.73;1.45;;;;;;;;;;5096646;28;20231;-61
2023/04/04 09:43:22;;;;;;;1.58;1.48;;;;;;;;;;5117177;28;20191;-61
2023/04/04 09:45:51;;;;;;;1.95;1.75;;;;;;;;;;5119097;28;20586;-61
2023/04/04 09:48:26;;;;;;;2.28;1.50;;;;;;;;;;5118743;28;20586;-61
2023/04/04 09:50:53;;;;;;;1.77;1.67;;;;;;;;;;5118704;28;20210;-61
2023/04/04 09:53:21;;;;;;;1.88;1.70;;;;;;;;;;5117707;28;20225;-61
2023/04/04 09:55:51;;;;;;;2.28;1.90;;;;;;;;;;5119001;28;20215;-61
2023/04/04 09:58:19;;;;;;;2.83;1.80;;;;;;;;;;5117960;28;20238;-62
2023/04/04 10:00:47;;;;;;;1.77;1.67;;;;;;;;;;5118650;28;20237;-62
2023/04/04 10:03:16;;;;;;;1.60;1.50;;;;;;;;;;5100661;28;20298;-62
2023/04/04 10:05:45;;;;;;;2.00;1.80;;;;;;;;;;5098058;28;20207;-61
2023/04/04 10:08:16;;;;;;;1.70;1.60;;;;;;;;;;5098462;28;21171;-61
2023/04/04 10:10:48;;;;;;;1.67;1.30;;;;;;;;;;5098100;28;20264;-61
2023/04/04 10:13:23;;;;;;;1.70;1.60;;;;;;;;;;5097750;28;20200;-61
2023/04/04 10:15:51;;;;;;;1.83;1.67;;;;;;;;;;5097249;28;20697;-61
2023/04/04 10:18:21;;;;;;;1.70;1.60;;;;;;;;;;5098086;28;20242;-61
2023/04/04 10:20:50;;;;;;;1.65;1.55;;;;;;;;;;5097873;28;20250;-61
2023/04/04 10:23:17;;;;;;;1.77;1.67;;;;;;;;;;5113743;28;20301;-61
2023/04/04 10:25:44;;;;;;;1.60;1.50;;;;;;;;;;5117306;28;20613;-61
2023/04/04 10:28:12;;;;;;;1.70;1.60;;;;;;;;;;5118435;28;20739;-61
2023/04/04 10:30:41;;;;;;;1.65;1.55;;;;;;;;;;5118498;28;20233;-61
2023/04/04 10:33:12;;;;;;;1.67;1.30;;;;;;;;;;5102093;28;20203;-61
2023/04/04 10:35:42;;;;;;;1.48;1.38;;;;;;;;;;5096599;28;20196;-61
2023/04/04 10:38:09;;;;;;;1.60;1.50;;;;;;;;;;5097581;28;20254;-61
2023/04/04 10:40:38;;;;;;;1.85;1.45;;;;;;;;;;5097509;28;20228;-61
2023/04/04 10:43:06;;;;;;;1.60;1.50;;;;;;;;;;5111691;28;20199;-61
2023/04/04 10:45:37;;;;;;;1.48;1.38;;;;;;;;;;5118657;28;20271;-61
2023/04/04 10:48:04;;;;;;;1.83;1.65;;;;;;;;;;5117680;28;20650;-61
2023/04/04 10:50:33;;;;;;;1.58;1.38;;;;;;;;;;5117257;28;20199;-61
2023/04/04 10:53:03;;;;;;;1.48;1.38;;;;;;;;;;5102526;28;20231;-61
2023/04/04 10:55:31;;;;;;;1.80;1.50;;;;;;;;;;5096861;28;20196;-61
2023/04/04 10:57:59;;;;;;;1.67;1.23;;;;;;;;;;5096528;28;20263;-61
2023/04/04 11:00:27;;;;;;;1.67;1.58;;;;;;;;;;5096490;28;20223;-61
2023/04/04 11:02:55;;;;;;;1.50;1.40;;;;;;;;;;5109547;28;20199;-62
2023/04/04 11:05:24;;;;;;;1.40;1.30;;;;;;;;;;5116975;28;20199;-62
2023/04/04 11:07:59;;;;;;;1.55;1.45;;;;;;;;;;5118468;28;20203;-62
2023/04/04 11:10:29;;;;;;;1.95;1.50;;;;;;;;;;5117352;28;20207;-61
2023/04/04 11:13:03;;;;;;;1.40;1.30;;;;;;;;;;5099314;28;20716;-61
2023/04/04 11:15:45;;;;;;;1.48;1.38;;;;;;;;;;5096257;28;20203;-61
2023/04/04 11:18:12;;;;;;;1.42;1.23;;;;;;;;;;5096700;28;20239;-61
2023/04/04 11:20:44;;;;;;;1.30;1.20;;;;;;;;;;5095333;28;20227;-61
2023/04/04 11:23:16;;;;;;;1.83;1.40;;;;;;;;;;5113890;28;20195;-61
2023/04/04 11:25:50;;;;;;;1.35;1.10;;;;;;;;;;5116511;28;20267;-61
2023/04/04 11:28:26;;;;;;;1.15;1.05;;;;;;;;;;5117001;28;20199;-61
2023/04/04 11:31:08;;;;;;;1.42;1.33;;;;;;;;;;5116723;28;20315;-61
2023/04/04 11:33:54;;;;;;;1.42;1.30;;;;;;;;;;5075159;28;20208;-61
2023/04/04 11:36:24;;;;;;;1.88;1.23;;;;;;;;;;5075368;28;20310;-61
2023/04/04 11:38:52;;;;;;;1.30;1.17;;;;;;;;;;5075835;28;20212;-61
2023/04/04 11:41:21;;;;;;;1.38;1.27;;;;;;;;;;5080306;28;20228;-61
2023/04/04 11:43:51;;;;;;;2.50;1.40;;;;;;;;;;5115926;28;20211;-61
2023/04/04 11:46:18;;;;;;;1.73;1.63;;;;;;;;;;5116171;28;20199;-61
2023/04/04 11:48:46;;;;;;;1.27;1.17;;;;;;;;;;5115495;28;20203;-61
2023/04/04 11:51:14;;;;;;;1.40;1.20;;;;;;;;;;5113910;28;20226;-61
2023/04/04 11:53:43;;;;;;;1.40;1.30;;;;;;;;;;5095858;28;20208;-61
2023/04/04 11:56:16;;;;;;;1.50;1.20;;;;;;;;;;5094279;28;20203;-61
2023/04/04 11:58:48;;;;;;;1.30;1.20;;;;;;;;;;5095541;28;20631;-61
2023/04/04 12:01:16;;;;;;;1.63;1.20;;;;;;;;;;5095395;28;20327;-61
2023/04/04 12:03:43;;;;;;;1.10;1.10;;;;;;;;;;5077521;28;20642;-61
2023/04/04 12:06:11;;;;;;;1.45;1.35;;;;;;;;;;5095689;28;20212;-61
2023/04/04 12:08:40;;;;;;;1.35;1.25;;;;;;;;;;5095526;28;20811;-62
2023/04/04 12:11:09;;;;;;;1.40;1.23;;;;;;;;;;5095449;28;20200;-62
2023/04/04 12:13:42;;;;;;;1.40;1.30;;;;;;;;;;5074014;28;20607;-62
2023/04/04 12:16:11;;;;;;;1.30;1.20;;;;;;;;;;5074949;28;20279;-62
2023/04/04 12:18:38;;;;;;;1.25;1.15;;;;;;;;;;5075844;28;20212;-61
2023/04/04 12:21:07;;;;;;;1.30;1.20;;;;;;;;;;5074779;28;20232;-61
2023/04/04 12:23:35;;;;;;;1.35;1.25;;;;;;;;;;5074939;28;20349;-61
2023/04/04 12:26:04;;;;;;;1.40;1.30;;;;;;;;;;5075736;28;20204;-61
2023/04/04 12:28:33;;;;;;;1.20;1.10;;;;;;;;;;5075156;28;20333;-62
2023/04/04 12:31:04;;;;;;;1.63;1.20;;;;;;;;;;5074087;28;20240;-61
2023/04/04 12:33:33;;;;;;;1.30;1.20;;;;;;;;;;5114495;28;20199;-61
2023/04/04 12:36:02;;;;;;;1.20;1.10;;;;;;;;;;5115286;28;20301;-61
2023/04/04 12:38:30;;;;;;;1.30;1.20;;;;;;;;;;5114810;28;20199;-61
2023/04/04 12:40:57;;;;;;;1.20;1.10;;;;;;;;;;5114520;28;20501;-61
2023/04/04 12:43:28;;;;;;;1.08;1.08;;;;;;;;;;5096512;28;20196;-61
2023/04/04 12:45:57;;;;;;;1.20;1.10;;;;;;;;;;5094733;28;20230;-61
2023/04/04 12:48:27;;;;;;;1.00;1.00;;;;;;;;;;5095054;28;20223;-61
2023/04/04 12:50:56;;;;;;;1.30;1.20;;;;;;;;;;5094600;28;20291;-61
2023/04/04 12:53:24;;;;;;;1.15;1.00;;;;;;;;;;5112149;28;20202;-61
2023/04/04 12:55:52;;;;;;;1.33;1.20;;;;;;;;;;5114957;28;20210;-61
2023/04/04 12:58:20;;;;;;;1.38;1.27;;;;;;;;;;5095412;28;20207;-61
2023/04/04 13:00:48;;;;;;;1.15;1.05;;;;;;;;;;5094494;28;20318;-61
2023/04/04 13:03:16;;;;;;;1.20;1.10;;;;;;;;;;5076873;28;20207;-62
2023/04/04 13:05:44;;;;;;;0.88;0.88;;;;;;;;;;5073693;28;20209;-61
2023/04/04 13:08:13;;;;;;;1.23;1.13;;;;;;;;;;5074174;28;20204;-61
2023/04/04 13:10:58;;;;;;;1.20;1.10;;;;;;;;;;5074014;28;20200;-61
2023/04/04 13:13:33;;;;;;;1.00;1.00;;;;;;;;;;5091303;28;20227;-61
2023/04/04 13:16:00;;;;;;;1.20;1.10;;;;;;;;;;5093679;28;20528;-61
2023/04/04 13:18:32;;;;;;;1.02;0.98;;;;;;;;;;5094123;28;20204;-61
2023/04/04 13:20:59;;;;;;;1.08;1.02;;;;;;;;;;5093781;28;20259;-62
2023/04/04 13:23:28;;;;;;;1.27;1.17;;;;;;;;;;5075734;28;20200;-62
2023/04/04 13:25:57;;;;;;;1.08;1.00;;;;;;;;;;5073682;28;20197;-61
2023/04/04 13:28:25;;;;;;;1.10;1.05;;;;;;;;;;5074037;28;20204;-61
2023/04/04 13:30:52;;;;;;;1.30;1.20;;;;;;;;;;5074399;28;20258;-61
2023/04/04 13:33:21;;;;;;;0.90;0.90;;;;;;;;;;5090207;28;20210;-61
2023/04/04 13:35:48;;;;;;;1.10;1.00;;;;;;;;;;5094058;28;20203;-62
2023/04/04 13:38:16;;;;;;;1.00;0.95;;;;;;;;;;5092734;28;20206;-61
2023/04/04 13:40:45;;;;;;;1.20;1.10;;;;;;;;;;5093259;28;20211;-61
2023/04/04 13:43:14;;;;;;;1.20;1.10;;;;;;;;;;5076846;28;20200;-61
2023/04/04 13:45:42;;;;;;;1.23;1.10;;;;;;;;;;5073238;28;20214;-61
2023/04/04 13:48:09;;;;;;;1.08;1.08;;;;;;;;;;5072506;28;20533;-61
2023/04/04 13:50:38;;;;;;;1.20;1.10;;;;;;;;;;5073676;28;20196;-61
2023/04/04 13:53:05;;;;;;;1.20;1.10;;;;;;;;;;5087634;28;20207;-61
2023/04/04 13:55:32;;;;;;;1.27;1.17;;;;;;;;;;5093289;28;20207;-61
2023/04/04 13:58:01;;;;;;;1.15;1.05;;;;;;;;;;5110522;28;20235;-61
2023/04/04 14:00:28;;;;;;;1.98;1.15;;;;;;;;;;5113455;28;20609;-61
2023/04/04 14:02:56;;;;;;;1.20;1.10;;;;;;;;;;5100004;28;20230;-61
2023/04/04 14:05:23;;;;;;;1.17;1.05;;;;;;;;;;5092810;28;20204;-61
2023/04/04 14:07:51;;;;;;;1.23;1.13;;;;;;;;;;5093179;28;20632;-61
2023/04/04 14:10:18;;;;;;;1.10;1.00;;;;;;;;;;5093138;28;20204;-61
2023/04/04 14:12:45;;;;;;;1.27;1.13;;;;;;;;;;5104405;28;20233;-61
2023/04/04 14:15:14;;;;;;;1.02;1.00;;;;;;;;;;5113986;28;20233;-61
2023/04/04 14:17:41;;;;;;;0.90;0.90;;;;;;;;;;5113637;28;20211;-61
2023/04/04 14:20:09;;;;;;;1.10;1.00;;;;;;;;;;5113183;28;20210;-61
2023/04/04 14:22:37;;;;;;;1.05;1.00;;;;;;;;;;5103235;28;20542;-61
2023/04/04 14:25:04;;;;;;;1.33;1.20;;;;;;;;;;5092660;28;20210;-61
2023/04/04 14:27:32;;;;;;;0.90;0.90;;;;;;;;;;5097475;28;20211;-61
2023/04/04 14:29:59;;;;;;;0.80;0.80;;;;;;;;;;5096810;28;20207;-61
2023/04/04 14:32:28;;;;;;;1.40;1.30;;;;;;;;;;5104966;28;20255;-61
2023/04/04 14:34:55;;;;;;;1.10;1.00;;;;;;;;;;5118282;28;20199;-61
2023/04/04 14:37:22;;;;;;;1.23;0.90;;;;;;;;;;5117346;28;20226;-62
2023/04/04 14:39:50;;;;;;;1.08;1.08;;;;;;;;;;5117693;28;20199;-61
2023/04/04 14:42:17;;;;;;;1.08;0.98;;;;;;;;;;5110588;28;20219;-61
2023/04/04 14:44:44;;;;;;;1.13;1.05;;;;;;;;;;5097546;28;20203;-61
2023/04/04 14:47:12;;;;;;;2.60;1.08;;;;;;;;;;5097535;28;20575;-61
2023/04/04 14:49:41;;;;;;;0.90;0.90;;;;;;;;;;5097827;28;20208;-61